Terminal Aerodrome Forecast
Issued by NWS

Home | Current Version | Previous Version | Text Only | Print | Product List | Glossary On
Versions: 1 2 3 4 5 6 7 8 9 10 11 12 13 14
000
FTUS45 KRIW 242332
TAFWRL
TAF
KWRL 242332Z 2500/2524 25008KT P6SM VCSH BKN045
     FM250100 VRB06KT P6SM BKN060
     FM250600 VRB05KT P6SM VCFG FEW005 SCT080
     FM251700 29008KT P6SM FEW080=

USA.gov is the U.S. government's official web portal to all federal, state and local government web resources and services.